createdAt,value
2023-05-18T00:00:38.391Z,9.30
2023-05-18T00:03:07.164Z,9.20
2023-05-18T00:05:35.360Z,9.20
2023-05-18T00:08:03.480Z,9.20
2023-05-18T00:10:31.730Z,9.10
2023-05-18T00:13:00.222Z,9.00
2023-05-18T00:15:28.551Z,9.00
2023-05-18T00:17:58.787Z,9.10
2023-05-18T00:20:27.673Z,9.00
2023-05-18T00:22:55.853Z,9.00
2023-05-18T00:25:25.335Z,8.90
2023-05-18T00:27:53.649Z,8.90
2023-05-18T00:30:24.057Z,8.80
2023-05-18T00:32:52.294Z,8.80
2023-05-18T00:35:22.385Z,8.80
2023-05-18T00:37:50.720Z,8.80
2023-05-18T00:40:19.169Z,8.80
2023-05-18T00:42:47.395Z,8.70
2023-05-18T00:45:15.556Z,8.70
2023-05-18T00:47:43.780Z,8.60
2023-05-18T00:50:12.605Z,8.70
2023-05-18T00:52:42.254Z,8.70
2023-05-18T00:55:12.803Z,8.70
2023-05-18T00:57:42.156Z,8.70
2023-05-18T01:00:14.069Z,8.70
2023-05-18T01:02:45.601Z,8.70
2023-05-18T01:05:14.460Z,8.60
2023-05-18T01:07:44.005Z,8.70
2023-05-18T01:10:13.371Z,8.60
2023-05-18T01:12:46.031Z,8.60
2023-05-18T01:15:17.794Z,8.60
2023-05-18T01:18:01.126Z,8.60
2023-05-18T01:20:46.144Z,8.60
2023-05-18T01:23:42.688Z,8.60
2023-05-18T01:26:31.740Z,8.50
2023-05-18T01:29:02.590Z,8.40
2023-05-18T01:31:32.843Z,8.30
2023-05-18T01:34:01.328Z,8.30
2023-05-18T01:36:29.563Z,8.30
2023-05-18T01:39:01.839Z,8.30
2023-05-18T01:41:39.265Z,8.20
2023-05-18T01:44:12.879Z,8.30
2023-05-18T01:46:54.749Z,8.20
2023-05-18T01:49:32.231Z,8.20
2023-05-18T01:52:04.899Z,8.10
2023-05-18T01:54:34.651Z,8.10
2023-05-18T01:57:07.502Z,8.00
2023-05-18T01:59:35.986Z,8.00
2023-05-18T02:02:05.692Z,8.00
2023-05-18T02:04:35.249Z,8.00
2023-05-18T02:07:03.348Z,8.00
2023-05-18T02:09:31.968Z,7.90
2023-05-18T02:12:00.374Z,7.90
2023-05-18T02:14:30.263Z,7.90
2023-05-18T02:16:58.355Z,7.90
2023-05-18T02:19:26.753Z,7.90
2023-05-18T02:21:55.183Z,7.90
2023-05-18T02:24:23.529Z,7.90
2023-05-18T02:26:52.054Z,7.80
2023-05-18T02:29:20.168Z,7.90
2023-05-18T02:31:49.693Z,7.90
2023-05-18T02:34:18.454Z,7.80
2023-05-18T02:36:48.791Z,7.80
2023-05-18T02:39:17.346Z,7.80
2023-05-18T02:41:45.514Z,7.80
2023-05-18T02:44:13.813Z,7.80
2023-05-18T02:46:42.172Z,7.80
2023-05-18T02:49:11.899Z,7.80
2023-05-18T02:51:40.237Z,7.80
2023-05-18T02:54:08.550Z,7.70
2023-05-18T02:56:36.735Z,7.70
2023-05-18T02:59:05.131Z,7.80
2023-05-18T03:01:37.151Z,7.70
2023-05-18T03:04:05.868Z,7.70
2023-05-18T03:06:36.243Z,7.70
2023-05-18T03:09:04.772Z,7.70
2023-05-18T03:11:32.931Z,7.70
2023-05-18T03:14:01.107Z,7.70
2023-05-18T03:16:29.300Z,7.70
2023-05-18T03:18:59.107Z,7.70
2023-05-18T03:21:34.187Z,7.80
2023-05-18T03:24:04.297Z,7.80
2023-05-18T03:26:32.639Z,7.80
2023-05-18T03:29:01.340Z,7.90
2023-05-18T03:31:29.642Z,7.80
2023-05-18T03:33:57.827Z,7.80
2023-05-18T03:36:28.234Z,7.90
2023-05-18T03:38:56.456Z,7.80
2023-05-18T03:41:25.869Z,7.80
2023-05-18T03:43:54.022Z,7.80
2023-05-18T03:46:22.116Z,7.90
2023-05-18T03:48:55.676Z,7.80
2023-05-18T03:51:40.953Z,7.90
2023-05-18T03:54:16.789Z,7.80
2023-05-18T03:56:48.737Z,7.80
2023-05-18T03:59:18.039Z,7.80
2023-05-18T04:01:46.164Z,7.80
2023-05-18T04:04:18.210Z,7.80
2023-05-18T04:06:47.050Z,7.70
2023-05-18T04:09:17.358Z,7.70
2023-05-18T04:11:46.998Z,7.70
2023-05-18T04:14:17.412Z,7.70
2023-05-18T04:16:45.565Z,7.70
2023-05-18T04:19:15.149Z,7.60
2023-05-18T04:21:44.137Z,7.70
2023-05-18T04:24:14.693Z,7.70
2023-05-18T04:26:43.016Z,7.70
2023-05-18T04:29:13.559Z,7.70
2023-05-18T04:31:44.947Z,7.70
2023-05-18T04:34:13.869Z,7.60
2023-05-18T04:36:43.917Z,7.80
2023-05-18T04:39:12.989Z,7.80
2023-05-18T04:41:42.570Z,7.80
2023-05-18T04:44:14.208Z,7.80
2023-05-18T04:46:42.598Z,7.70
2023-05-18T04:49:12.304Z,7.90
2023-05-18T04:51:42.180Z,7.90
2023-05-18T04:54:10.430Z,8.00
2023-05-18T04:56:38.725Z,8.00
2023-05-18T04:59:06.889Z,8.00
2023-05-18T05:01:36.456Z,8.00
2023-05-18T05:04:06.396Z,8.10
2023-05-18T05:06:34.525Z,8.00
2023-05-18T05:09:02.614Z,8.00
2023-05-18T05:11:30.982Z,8.10
2023-05-18T05:13:59.259Z,8.10
2023-05-18T05:16:27.555Z,8.10
2023-05-18T05:18:57.218Z,8.10
2023-05-18T05:21:25.827Z,8.20
2023-05-18T05:23:54.033Z,8.20
2023-05-18T05:26:22.835Z,8.20
2023-05-18T05:28:51.147Z,8.30
2023-05-18T05:31:19.542Z,8.30
2023-05-18T05:33:47.743Z,8.50
2023-05-18T05:36:18.190Z,8.40
2023-05-18T05:38:46.329Z,8.50
2023-05-18T05:41:14.812Z,8.50
2023-05-18T05:43:43.324Z,8.60
2023-05-18T05:46:11.426Z,8.60
2023-05-18T05:48:39.899Z,8.70
2023-05-18T05:51:08.112Z,8.70
2023-05-18T05:53:38.027Z,8.80
2023-05-18T05:56:08.030Z,8.90
2023-05-18T05:58:36.299Z,8.90
2023-05-18T06:01:04.740Z,9.00
2023-05-18T06:03:35.772Z,9.00
2023-05-18T06:06:04.598Z,9.10
2023-05-18T06:08:33.934Z,9.10
2023-05-18T06:11:11.375Z,9.20
2023-05-18T06:13:50.347Z,9.30
2023-05-18T06:16:20.978Z,9.30
2023-05-18T06:19:05.113Z,9.40
2023-05-18T06:21:42.276Z,9.50
2023-05-18T06:24:14.609Z,9.50
2023-05-18T06:26:47.110Z,9.60
2023-05-18T06:29:17.908Z,9.70
2023-05-18T06:31:46.406Z,9.70
2023-05-18T06:34:14.913Z,9.80
2023-05-18T06:36:46.624Z,9.90
2023-05-18T06:39:14.903Z,9.90
2023-05-18T06:41:45.732Z,10.00
2023-05-18T06:44:20.113Z,10.00
2023-05-18T06:46:50.561Z,10.10
2023-05-18T06:49:21.411Z,10.20
2023-05-18T06:51:51.122Z,10.20
2023-05-18T06:54:20.173Z,10.30
2023-05-18T06:56:49.526Z,10.30
2023-05-18T06:59:17.589Z,10.40
2023-05-18T07:01:45.844Z,10.50
2023-05-18T07:04:14.132Z,10.50
2023-05-18T07:06:43.287Z,10.50
2023-05-18T07:09:11.297Z,10.70
2023-05-18T07:11:40.372Z,10.60
2023-05-18T07:14:09.820Z,10.70
2023-05-18T07:16:38.594Z,10.70
2023-05-18T07:19:06.732Z,10.80
2023-05-18T07:21:35.378Z,10.80
2023-05-18T07:24:03.596Z,10.90
2023-05-18T07:26:32.578Z,11.00
2023-05-18T07:29:01.702Z,11.00
2023-05-18T07:31:31.518Z,11.00
2023-05-18T07:33:59.776Z,11.10
2023-05-18T07:36:28.689Z,11.10
2023-05-18T07:38:57.525Z,11.20
2023-05-18T07:41:26.310Z,11.20
2023-05-18T07:43:54.558Z,11.30
2023-05-18T07:46:22.778Z,11.30
2023-05-18T07:48:52.197Z,11.40
2023-05-18T07:51:20.304Z,11.50
2023-05-18T07:53:48.308Z,11.60
2023-05-18T07:56:16.380Z,11.60
2023-05-18T07:58:44.720Z,11.70
2023-05-18T08:01:12.851Z,11.70
2023-05-18T08:03:41.448Z,11.80
2023-05-18T08:06:11.256Z,11.80
2023-05-18T08:08:39.313Z,11.90
2023-05-18T08:11:07.649Z,12.00
2023-05-18T08:13:36.953Z,12.00
2023-05-18T08:16:11.708Z,12.10
2023-05-18T08:18:40.862Z,12.20
2023-05-18T08:21:10.465Z,12.20
2023-05-18T08:23:39.115Z,12.30
2023-05-18T08:26:08.442Z,12.30
2023-05-18T08:28:36.556Z,12.40
2023-05-18T08:31:04.735Z,12.40
2023-05-18T08:33:33.470Z,12.40
2023-05-18T08:36:01.454Z,12.40
2023-05-18T08:38:32.264Z,12.50
2023-05-18T08:41:06.372Z,12.70
2023-05-18T08:43:40.047Z,12.60
2023-05-18T08:46:15.096Z,12.70
2023-05-18T08:48:46.250Z,12.70
2023-05-18T08:51:17.276Z,12.80
2023-05-18T08:53:49.928Z,12.90
2023-05-18T08:56:18.255Z,12.90
2023-05-18T08:58:50.185Z,13.00
2023-05-18T09:01:19.101Z,13.10
2023-05-18T09:03:49.564Z,13.20
2023-05-18T09:06:18.453Z,13.30
2023-05-18T09:08:47.995Z,13.30
2023-05-18T09:11:17.243Z,13.30
2023-05-18T09:13:46.080Z,13.40
2023-05-18T09:16:14.137Z,13.50
2023-05-18T09:18:44.449Z,13.50
2023-05-18T09:21:13.299Z,13.60
2023-05-18T09:23:42.049Z,13.70
2023-05-18T09:26:13.345Z,13.70
2023-05-18T09:28:43.291Z,13.80
2023-05-18T09:31:17.427Z,13.80
2023-05-18T09:33:47.097Z,13.70
2023-05-18T09:36:16.484Z,13.90
2023-05-18T09:38:46.894Z,14.00
2023-05-18T09:41:18.286Z,14.10
2023-05-18T09:43:48.737Z,14.20
2023-05-18T09:46:17.906Z,14.30
2023-05-18T09:48:47.559Z,14.40
2023-05-18T09:51:17.397Z,14.40
2023-05-18T09:53:50.005Z,14.60
2023-05-18T09:56:19.535Z,14.60
2023-05-18T09:58:48.368Z,14.70
2023-05-18T10:01:17.119Z,14.80
2023-05-18T10:03:45.776Z,14.70
2023-05-18T10:06:14.421Z,14.80
2023-05-18T10:08:42.538Z,14.80
2023-05-18T10:11:10.950Z,14.90
2023-05-18T10:13:44.006Z,15.00
2023-05-18T10:16:12.204Z,15.10
2023-05-18T10:18:40.755Z,15.20
2023-05-18T10:21:08.889Z,15.20
2023-05-18T10:23:37.786Z,15.20
2023-05-18T10:26:07.742Z,15.20
2023-05-18T10:28:42.986Z,15.40
2023-05-18T10:31:11.377Z,15.40
2023-05-18T10:33:39.662Z,15.60
2023-05-18T10:36:10.533Z,15.70
2023-05-18T10:38:40.647Z,15.90
2023-05-18T10:41:11.111Z,16.00
2023-05-18T10:43:42.762Z,16.00
2023-05-18T10:46:11.115Z,16.00
2023-05-18T10:48:41.187Z,16.00
2023-05-18T10:51:09.928Z,15.90
2023-05-18T10:53:39.169Z,15.90
2023-05-18T10:56:08.012Z,15.90
2023-05-18T10:58:38.647Z,16.10
2023-05-18T11:01:11.502Z,16.50
2023-05-18T11:03:40.286Z,17.10
2023-05-18T11:06:10.652Z,17.70
2023-05-18T11:08:48.156Z,18.30
2023-05-18T11:11:18.909Z,18.70
2023-05-18T11:13:50.882Z,19.20
2023-05-18T11:16:21.193Z,19.60
2023-05-18T11:18:50.944Z,20.00
2023-05-18T11:21:51.613Z,20.30
2023-05-18T11:24:24.862Z,20.40
2023-05-18T11:26:54.912Z,20.60
2023-05-18T11:29:32.475Z,20.70
2023-05-18T11:32:02.735Z,20.90
2023-05-18T11:34:44.954Z,21.10
2023-05-18T11:37:15.110Z,21.50
2023-05-18T11:39:55.520Z,21.80
2023-05-18T11:42:35.057Z,22.10
2023-05-18T11:45:08.210Z,22.30
2023-05-18T11:47:40.145Z,22.50
2023-05-18T11:50:11.993Z,22.30
2023-05-18T11:52:52.556Z,21.90
2023-05-18T11:55:21.688Z,21.50
2023-05-18T11:57:52.548Z,21.20
2023-05-18T12:00:22.273Z,21.30
2023-05-18T12:02:52.718Z,21.50
2023-05-18T12:05:21.215Z,21.80
2023-05-18T12:07:54.615Z,22.10
2023-05-18T12:10:23.532Z,22.30
2023-05-18T12:12:53.933Z,22.40
2023-05-18T12:15:24.061Z,22.60
2023-05-18T12:17:53.498Z,22.80
2023-05-18T12:20:25.160Z,23.00
2023-05-18T12:22:54.825Z,23.10
2023-05-18T12:25:24.563Z,23.20
2023-05-18T12:27:53.585Z,23.40
2023-05-18T12:30:23.142Z,23.60
2023-05-18T12:32:55.169Z,24.00
2023-05-18T12:35:23.936Z,24.40
2023-05-18T12:37:52.453Z,24.70
2023-05-18T12:40:21.410Z,24.90
2023-05-18T12:42:53.893Z,25.00
2023-05-18T12:45:25.070Z,25.20
2023-05-18T12:47:56.634Z,25.60
2023-05-18T12:50:26.757Z,26.00
2023-05-18T12:52:56.304Z,26.30
2023-05-18T12:55:25.174Z,26.60
2023-05-18T12:58:03.782Z,26.60
2023-05-18T13:00:35.545Z,26.80
2023-05-18T13:03:11.045Z,27.00
2023-05-18T13:05:42.674Z,27.20
2023-05-18T13:08:14.659Z,27.30
2023-05-18T13:10:45.642Z,27.30
2023-05-18T13:13:17.020Z,27.40
2023-05-18T13:15:45.710Z,27.30
2023-05-18T13:18:15.488Z,27.30
2023-05-18T13:20:48.614Z,27.10
2023-05-18T13:23:18.876Z,26.70
2023-05-18T13:25:47.371Z,26.50
2023-05-18T13:28:17.237Z,26.50
2023-05-18T13:30:47.293Z,26.60
2023-05-18T13:33:18.022Z,26.60
2023-05-18T13:35:46.867Z,26.70
2023-05-18T13:38:16.013Z,26.90
2023-05-18T13:40:44.287Z,27.00
2023-05-18T13:43:13.703Z,27.10
2023-05-18T13:45:42.730Z,27.00
2023-05-18T13:48:11.376Z,26.80
2023-05-18T13:50:40.973Z,26.90
2023-05-18T13:53:09.155Z,27.30
2023-05-18T13:55:37.276Z,27.70
2023-05-18T13:58:06.472Z,27.90
2023-05-18T14:00:34.853Z,28.10
2023-05-18T14:03:03.124Z,28.30
2023-05-18T14:05:31.306Z,28.40
2023-05-18T14:08:01.518Z,28.50
2023-05-18T14:10:29.941Z,28.70
2023-05-18T14:12:58.177Z,28.80
2023-05-18T14:15:26.165Z,28.90
2023-05-18T14:17:54.150Z,29.10
2023-05-18T14:20:22.386Z,29.10
2023-05-18T14:22:50.481Z,29.10
2023-05-18T14:25:20.255Z,29.10
2023-05-18T14:27:48.278Z,29.00
2023-05-18T14:30:16.285Z,29.00
2023-05-18T14:32:44.313Z,28.90
2023-05-18T14:35:12.422Z,29.00
2023-05-18T14:37:40.625Z,29.00
2023-05-18T14:40:09.746Z,29.00
2023-05-18T14:42:39.102Z,28.90
2023-05-18T14:45:08.167Z,28.80
2023-05-18T14:47:36.194Z,28.70
2023-05-18T14:50:04.295Z,28.60
2023-05-18T14:52:32.329Z,28.60
2023-05-18T14:55:00.666Z,28.60
2023-05-18T14:57:28.702Z,28.30
2023-05-18T14:59:58.376Z,28.10
2023-05-18T15:02:26.423Z,28.10
2023-05-18T15:04:54.510Z,28.10
2023-05-18T15:07:23.127Z,28.10
2023-05-18T15:09:51.116Z,28.00
2023-05-18T15:12:19.785Z,27.90
2023-05-18T15:14:47.962Z,27.90
2023-05-18T15:17:17.926Z,27.80
2023-05-18T15:19:47.056Z,27.70
2023-05-18T15:22:15.115Z,27.80
2023-05-18T15:24:43.238Z,27.80
2023-05-18T15:27:12.150Z,27.80
2023-05-18T15:29:40.655Z,27.70
2023-05-18T15:32:09.148Z,27.70
2023-05-18T15:34:38.604Z,27.70
2023-05-18T15:37:06.728Z,27.60
2023-05-18T15:39:34.759Z,27.70
2023-05-18T15:42:04.620Z,27.70
2023-05-18T15:44:32.653Z,27.80
2023-05-18T15:47:01.732Z,27.80
2023-05-18T15:49:29.885Z,27.90
2023-05-18T15:51:59.357Z,27.90
2023-05-18T15:54:27.347Z,27.90
2023-05-18T15:56:55.386Z,27.90
2023-05-18T15:59:23.457Z,27.90
2023-05-18T16:01:51.821Z,27.60
2023-05-18T16:04:20.181Z,27.20
2023-05-18T16:06:48.176Z,26.70
2023-05-18T16:09:17.532Z,26.40
2023-05-18T16:11:45.566Z,26.20
2023-05-18T16:14:13.580Z,26.20
2023-05-18T16:16:41.615Z,26.40
2023-05-18T16:19:09.810Z,26.70
2023-05-18T16:21:38.024Z,26.90
2023-05-18T16:24:07.093Z,27.00
2023-05-18T16:26:39.239Z,27.10
2023-05-18T16:29:08.123Z,27.20
2023-05-18T16:31:37.175Z,27.20
2023-05-18T16:34:05.587Z,27.10
2023-05-18T16:36:33.658Z,27.10
2023-05-18T16:39:02.941Z,26.90
2023-05-18T16:41:30.942Z,26.60
2023-05-18T16:44:00.344Z,26.20
2023-05-18T16:46:28.906Z,25.80
2023-05-18T16:48:57.025Z,25.60
2023-05-18T16:51:27.323Z,25.60
2023-05-18T16:53:55.651Z,25.60
2023-05-18T16:56:23.676Z,25.50
2023-05-18T16:58:52.472Z,25.60
2023-05-18T17:01:28.000Z,25.50
2023-05-18T17:03:56.997Z,25.40
2023-05-18T17:06:25.394Z,25.30
2023-05-18T17:08:57.783Z,25.20
2023-05-18T17:11:27.730Z,25.20
2023-05-18T17:13:56.238Z,25.10
2023-05-18T17:16:26.844Z,25.00
2023-05-18T17:18:56.148Z,25.10
2023-05-18T17:21:26.822Z,25.10
2023-05-18T17:23:55.036Z,25.10
2023-05-18T17:26:25.437Z,25.10
2023-05-18T17:28:53.656Z,25.10
2023-05-18T17:31:21.742Z,25.10
2023-05-18T17:33:51.284Z,25.00
2023-05-18T17:36:19.405Z,24.90
2023-05-18T17:38:47.920Z,24.80
2023-05-18T17:41:16.030Z,24.70
2023-05-18T17:43:44.084Z,24.60
2023-05-18T17:46:12.081Z,24.40
2023-05-18T17:48:40.257Z,24.30
2023-05-18T17:51:09.691Z,24.10
2023-05-18T17:53:42.015Z,23.90
2023-05-18T17:56:11.934Z,23.70
2023-05-18T17:58:40.026Z,23.50
2023-05-18T18:01:09.081Z,23.30
2023-05-18T18:03:37.788Z,23.20
2023-05-18T18:06:06.500Z,23.00
2023-05-18T18:08:36.780Z,22.80
2023-05-18T18:11:05.901Z,22.60
2023-05-18T18:13:35.732Z,22.30
2023-05-18T18:16:04.300Z,22.00
2023-05-18T18:18:32.746Z,21.90
2023-05-18T18:21:00.818Z,21.50
2023-05-18T18:23:28.863Z,21.30
2023-05-18T18:25:58.307Z,21.10
2023-05-18T18:28:26.550Z,20.90
2023-05-18T18:30:54.642Z,20.70
2023-05-18T18:33:22.812Z,20.50
2023-05-18T18:35:50.909Z,20.40
2023-05-18T18:38:19.260Z,20.20
2023-05-18T18:40:47.253Z,20.10
2023-05-18T18:43:16.818Z,20.00
2023-05-18T18:45:44.862Z,19.90
2023-05-18T18:48:13.125Z,19.70
2023-05-18T18:50:41.213Z,19.50
2023-05-18T18:53:09.355Z,19.50
2023-05-18T18:55:37.396Z,19.40
2023-05-18T18:58:05.418Z,19.20
2023-05-18T19:00:34.840Z,19.10
2023-05-18T19:03:03.028Z,19.00
2023-05-18T19:05:31.994Z,18.90
2023-05-18T19:08:01.742Z,18.80
2023-05-18T19:10:30.552Z,18.70
2023-05-18T19:13:00.026Z,18.60
2023-05-18T19:15:28.056Z,18.50
2023-05-18T19:17:57.527Z,18.40
2023-05-18T19:20:25.736Z,18.30
2023-05-18T19:22:54.218Z,18.20
2023-05-18T19:25:24.488Z,18.20
2023-05-18T19:30:21.877Z,18.00
2023-05-18T19:32:50.305Z,18.10
2023-05-18T19:35:20.142Z,17.90
2023-05-18T19:37:48.450Z,17.80
2023-05-18T19:40:18.002Z,17.70
2023-05-18T19:42:46.419Z,17.60
2023-05-18T19:45:14.396Z,17.50
2023-05-18T19:47:42.469Z,17.40
2023-05-18T19:50:10.922Z,17.40
2023-05-18T19:52:40.310Z,17.30
2023-05-18T19:55:08.879Z,17.30
2023-05-18T19:57:37.242Z,17.20
2023-05-18T20:00:07.076Z,17.10
2023-05-18T20:02:35.186Z,17.10
2023-05-18T20:05:04.006Z,17.00
2023-05-18T20:07:33.361Z,17.00
2023-05-18T20:10:02.772Z,16.90
2023-05-18T20:12:32.399Z,16.80
2023-05-18T20:15:00.871Z,16.80
2023-05-18T20:17:29.183Z,16.70
2023-05-18T20:19:57.524Z,16.60
2023-05-18T20:22:26.306Z,16.60
2023-05-18T20:24:54.469Z,16.50
2023-05-18T20:27:23.885Z,16.50
2023-05-18T20:29:52.274Z,16.50
2023-05-18T20:32:20.412Z,16.40
2023-05-18T20:34:48.539Z,16.40
2023-05-18T20:37:16.814Z,16.30
2023-05-18T20:39:50.702Z,16.10
2023-05-18T20:42:21.792Z,16.20
2023-05-18T20:44:53.434Z,16.10
2023-05-18T20:47:21.881Z,16.10
2023-05-18T20:49:50.051Z,16.00
2023-05-18T20:52:18.101Z,16.00
2023-05-18T20:54:47.021Z,15.90
2023-05-18T20:57:16.726Z,15.90
2023-05-18T20:59:44.830Z,15.80
2023-05-18T21:02:14.235Z,15.80
2023-05-18T21:04:42.335Z,15.80
2023-05-18T21:07:10.474Z,15.70
2023-05-18T21:09:38.546Z,15.70
2023-05-18T21:12:07.306Z,15.60
2023-05-18T21:14:35.525Z,15.60
2023-05-18T21:17:03.694Z,15.50
2023-05-18T21:19:33.470Z,15.50
2023-05-18T21:22:01.531Z,15.50
2023-05-18T21:24:29.641Z,15.50
2023-05-18T21:26:57.726Z,15.40
2023-05-18T21:29:25.867Z,15.40
2023-05-18T21:31:54.260Z,15.40
2023-05-18T21:34:22.462Z,15.30
2023-05-18T21:36:51.876Z,15.30
2023-05-18T21:39:20.159Z,15.20
2023-05-18T21:41:48.261Z,15.20
2023-05-18T21:44:16.466Z,15.10
2023-05-18T21:46:44.577Z,15.10
2023-05-18T21:49:12.804Z,15.10
2023-05-18T21:51:40.831Z,15.00
2023-05-18T21:54:10.221Z,15.00
2023-05-18T21:56:38.313Z,14.90
2023-05-18T21:59:06.396Z,14.90
2023-05-18T22:01:35.041Z,14.80
2023-05-18T22:04:03.446Z,14.80
2023-05-18T22:06:31.529Z,14.80
2023-05-18T22:08:59.524Z,14.70
2023-05-18T22:11:29.045Z,14.70
2023-05-18T22:13:57.635Z,14.60
2023-05-18T22:16:25.743Z,14.60
2023-05-18T22:18:53.879Z,14.50
2023-05-18T22:21:21.955Z,14.40
2023-05-18T22:23:50.083Z,14.40
2023-05-18T22:26:20.372Z,14.30
2023-05-18T22:28:49.950Z,14.30
2023-05-18T22:31:18.395Z,14.20
2023-05-18T22:33:46.481Z,14.20
2023-05-18T22:36:14.912Z,14.10
2023-05-18T22:38:43.941Z,14.10
2023-05-18T22:41:12.042Z,14.00
2023-05-18T22:43:40.289Z,14.00
2023-05-18T22:46:10.073Z,14.00
2023-05-18T22:48:38.176Z,14.00
2023-05-18T22:51:06.503Z,13.90
2023-05-18T22:53:34.659Z,13.80
2023-05-18T22:56:02.642Z,13.80
2023-05-18T22:58:30.661Z,13.70
2023-05-18T23:00:58.679Z,13.70
2023-05-18T23:03:28.364Z,13.60
2023-05-18T23:05:57.713Z,13.60
2023-05-18T23:08:26.553Z,13.60
2023-05-18T23:10:54.574Z,13.50
2023-05-18T23:13:23.404Z,13.50
2023-05-18T23:15:51.412Z,13.40
2023-05-18T23:18:19.409Z,13.40
2023-05-18T23:20:50.480Z,13.40
2023-05-18T23:23:18.806Z,13.30
2023-05-18T23:25:47.058Z,13.30
2023-05-18T23:28:15.312Z,13.20
2023-05-18T23:30:43.327Z,13.10
2023-05-18T23:33:12.177Z,13.10
2023-05-18T23:35:40.598Z,13.10
2023-05-18T23:38:12.730Z,13.00
2023-05-18T23:40:41.154Z,13.00
2023-05-18T23:43:09.811Z,12.90
2023-05-18T23:45:38.801Z,12.90
2023-05-18T23:48:07.745Z,12.80
2023-05-18T23:50:36.324Z,12.80
2023-05-18T23:53:05.574Z,12.80
2023-05-18T23:55:36.217Z,12.70
2023-05-18T23:58:05.960Z,12.60
